Time;durP1;ratioP1;P1;durP2;ratioP2;P2;SDS_P1;SDS_P2;PMS_P1;PMS_P2;Temp;Humidity;BMP_temperature;BMP_pressure;BME280_temperature;BME280_humidity;BME280_pressure;Samples;Min_cycle;Max_cycle;Signal;HPM_P1;HPM_P2
2022/06/01 00:01:12;;;;;;;12.13;10.88;;;;;;;15.93;52.94;101229.19;4995782;28;20045;-63
2022/06/01 00:03:41;;;;;;;12.82;11.60;;;;;;;15.91;52.92;101224.91;4995356;28;20055;-63
2022/06/01 00:06:08;;;;;;;13.10;11.80;;;;;;;15.89;53.10;101217.75;4995858;28;20548;-63
2022/06/01 00:08:36;;;;;;;12.00;10.80;;;;;;;15.86;53.10;101223.44;4996216;28;20046;-64
2022/06/01 00:11:03;;;;;;;12.20;11.00;;;;;;;15.82;53.03;101226.56;4995353;28;20038;-63
2022/06/01 00:13:31;;;;;;;12.70;11.50;;;;;;;15.79;53.08;101224.13;4985871;28;20050;-63
2022/06/01 00:15:58;;;;;;;11.75;10.65;;;;;;;15.76;52.95;101224.38;4995564;28;20052;-63
2022/06/01 00:18:24;;;;;;;12.77;11.55;;;;;;;15.73;53.09;101219.22;4995740;28;20054;-62
2022/06/01 00:20:52;;;;;;;13.98;12.57;;;;;;;15.70;52.65;101225.78;4995491;28;20049;-62
2022/06/01 00:23:20;;;;;;;14.63;13.13;;;;;;;15.69;53.12;101220.50;4993887;28;20041;-63
2022/06/01 00:25:47;;;;;;;15.00;12.90;;;;;;;15.68;53.41;101227.75;4994573;28;20502;-63
2022/06/01 00:28:14;;;;;;;14.50;13.00;;;;;;;15.67;52.93;101241.44;4995363;28;20058;-63
2022/06/01 00:30:41;;;;;;;14.50;13.10;;;;;;;15.64;52.75;101236.28;4995073;28;20055;-63
2022/06/01 00:33:07;;;;;;;15.57;13.52;;;;;;;15.62;53.03;101233.69;4994830;28;20077;-63
2022/06/01 00:35:34;;;;;;;14.50;13.10;;;;;;;15.60;53.22;101230.22;4995438;28;20048;-63
2022/06/01 00:38:01;;;;;;;14.10;12.75;;;;;;;15.57;53.30;101230.47;4995439;28;20050;-63
2022/06/01 00:40:29;;;;;;;14.93;13.43;;;;;;;15.55;53.27;101233.31;4995299;28;20050;-63
2022/06/01 00:42:58;;;;;;;15.32;13.70;;;;;;;15.53;53.27;101237.13;4995140;28;20038;-62
2022/06/01 00:45:28;;;;;;;14.77;13.30;;;;;;;15.50;53.05;101226.56;4994834;28;20042;-63
2022/06/01 00:47:55;;;;;;;15.45;13.95;;;;;;;15.48;53.20;101228.56;4994982;28;20061;-62
2022/06/01 00:50:32;;;;;;;15.65;14.15;;;;;;;15.46;53.27;101230.53;4995296;28;20391;-62
2022/06/01 00:53:01;;;;;;;16.08;14.48;;;;;;;15.45;53.53;101231.53;4995136;28;20388;-63
2022/06/01 00:55:32;;;;;;;16.10;14.57;;;;;;;15.43;53.33;101233.50;4994860;28;20066;-63
2022/06/01 00:58:04;;;;;;;15.68;14.02;;;;;;;15.40;53.35;101240.03;4982289;28;20050;-62
2022/06/01 01:00:32;;;;;;;16.70;15.07;;;;;;;15.39;53.54;101237.44;4988942;28;20451;-62
2022/06/01 01:03:02;;;;;;;16.17;14.57;;;;;;;15.35;53.44;101234.16;4994869;28;20042;-62
2022/06/01 01:05:33;;;;;;;17.48;15.68;;;;;;;15.33;53.58;101237.97;4987826;28;20054;-63
2022/06/01 01:08:02;;;;;;;16.88;15.07;;;;;;;15.31;53.66;101234.53;4994491;28;20077;-62
2022/06/01 01:10:29;;;;;;;16.73;15.02;;;;;;;15.29;53.50;101231.09;4994823;28;20053;-62
2022/06/01 01:12:59;;;;;;;17.15;15.45;;;;;;;15.26;53.73;101229.53;4994326;28;20042;-62
2022/06/01 01:15:58;;;;;;;17.40;15.60;;;;;;;15.24;53.67;101229.66;4994797;28;20130;-63
2022/06/01 01:18:31;;;;;;;19.02;17.10;;;;;;;15.23;53.58;101227.06;4982405;28;20058;-63
2022/06/01 01:21:02;;;;;;;19.40;17.38;;;;;;;15.21;53.89;101224.50;4994628;28;20074;-63
2022/06/01 01:23:47;;;;;;;19.75;17.65;;;;;;;15.17;53.75;101225.75;4994529;28;20129;-62
2022/06/01 01:26:15;;;;;;;20.88;18.48;;;;;;;15.15;53.97;101224.16;4976975;28;20042;-62
2022/06/01 01:28:42;;;;;;;19.75;17.73;;;;;;;15.13;54.03;101226.13;4994678;28;20109;-62
2022/06/01 01:31:27;;;;;;;19.25;17.38;;;;;;;15.10;53.97;101220.97;4994419;28;20073;-62
2022/06/01 01:33:55;;;;;;;20.55;18.42;;;;;;;15.11;54.12;101225.41;4983092;28;20408;-63
2022/06/01 01:36:27;;;;;;;20.75;18.65;;;;;;;15.09;53.93;101219.25;4994163;28;20412;-62
2022/06/01 01:39:09;;;;;;;19.85;17.85;;;;;;;15.07;54.07;101216.69;4994178;28;20061;-63
2022/06/01 01:41:40;;;;;;;21.17;18.98;;;;;;;15.07;54.11;101219.41;4994123;28;20038;-63
2022/06/01 01:44:10;;;;;;;21.48;19.20;;;;;;;15.05;54.44;101215.97;4994253;28;20042;-62
2022/06/01 01:46:37;;;;;;;21.75;19.55;;;;;;;15.06;54.32;101214.97;4994100;28;20048;-62
2022/06/01 01:49:04;;;;;;;21.88;19.73;;;;;;;15.07;54.38;101226.66;4993120;28;20073;-63
2022/06/01 01:51:33;;;;;;;21.88;19.60;;;;;;;15.06;54.42;101220.38;4993868;28;20546;-63
2022/06/01 01:54:00;;;;;;;22.15;19.80;;;;;;;15.09;54.53;101216.56;4993843;28;20038;-63
2022/06/01 01:56:48;;;;;;;21.60;19.33;;;;;;;15.09;54.67;101236.34;4993994;28;20048;-62
2022/06/01 01:59:41;;;;;;;23.15;20.83;;;;;;;15.06;54.98;101238.47;4994017;28;20046;-63
2022/06/01 02:02:33;;;;;;;22.67;20.27;;;;;;;15.05;54.82;101229.47;4975512;28;20042;-63
2022/06/01 02:08:31;;;;;;;22.85;20.42;;;;;;;15.00;54.78;101223.59;4989900;28;20038;-64
2022/06/01 02:14:22;;;;;;;;;;;;;;;15.03;54.76;101234.16;4985859;28;20047;-62
2022/06/01 02:16:59;;;;;;;22.65;20.25;;;;;;;15.09;54.75;101233.66;4989851;28;19929;-63
2022/06/01 02:19:41;;;;;;;22.45;20.13;;;;;;;15.09;55.02;101230.94;4994338;28;20054;-62
2022/06/01 02:22:10;;;;;;;24.83;22.05;;;;;;;15.07;54.88;101234.75;4994842;28;20546;-62
2022/06/01 02:24:38;;;;;;;24.42;21.88;;;;;;;15.03;54.95;101236.00;4997590;28;20562;-63
2022/06/01 02:27:05;;;;;;;25.05;22.55;;;;;;;15.01;55.57;101232.56;4997330;28;20038;-63
2022/06/01 02:29:39;;;;;;;22.20;20.00;;;;;;;15.02;55.29;101232.44;4997380;28;20497;-63
2022/06/01 02:32:08;;;;;;;23.15;20.85;;;;;;;15.05;55.60;101237.59;4997337;28;20034;-63
2022/06/01 02:34:37;;;;;;;25.38;22.77;;;;;;;15.08;55.74;101231.06;4997259;28;20038;-62
2022/06/01 02:37:06;;;;;;;24.52;21.92;;;;;;;15.13;55.60;101228.84;4997593;28;20038;-64
2022/06/01 02:39:37;;;;;;;23.23;20.73;;;;;;;15.17;55.62;101231.16;4997036;28;20500;-62
2022/06/01 02:42:25;;;;;;;24.67;21.88;;;;;;;15.21;55.66;101237.16;4994384;28;20048;-63
2022/06/01 02:45:04;;;;;;;23.83;21.25;;;;;;;15.25;55.81;101228.66;4994605;28;20054;-62
2022/06/01 02:47:37;;;;;;;25.38;22.67;;;;;;;15.28;55.86;101232.97;4994880;28;20396;-63
2022/06/01 02:50:06;;;;;;;24.33;21.73;;;;;;;15.32;56.02;101230.84;4995964;28;20053;-63
2022/06/01 02:52:33;;;;;;;24.20;21.77;;;;;;;15.34;55.61;101228.88;4996539;28;20408;-64
2022/06/01 02:55:05;;;;;;;24.50;21.85;;;;;;;15.31;55.69;101223.72;4996908;28;20042;-63
2022/06/01 02:57:33;;;;;;;23.77;21.10;;;;;;;15.25;55.79;101223.25;4967546;28;20046;-63
2022/06/01 03:00:00;;;;;;;22.85;20.45;;;;;;;15.22;55.69;101220.81;4997309;28;20152;-62
2022/06/01 03:02:26;;;;;;;22.60;20.23;;;;;;;15.22;55.80;101217.25;4996895;28;20492;-62
2022/06/01 03:04:53;;;;;;;22.70;20.35;;;;;;;15.22;55.82;101225.34;4996852;28;20053;-63
2022/06/01 03:07:20;;;;;;;23.13;20.83;;;;;;;15.20;55.47;101214.66;4996822;28;20552;-62
2022/06/01 03:09:46;;;;;;;23.13;20.73;;;;;;;15.19;55.56;101222.91;4996952;28;20054;-63
2022/06/01 03:12:13;;;;;;;24.40;21.50;;;;;;;15.18;55.52;101227.47;4979341;28;20410;-62
2022/06/01 03:14:40;;;;;;;25.95;21.30;;;;;;;15.17;55.44;101224.88;4996820;28;20422;-62
2022/06/01 03:17:06;;;;;;;23.52;21.08;;;;;;;15.17;55.41;101222.19;4996852;28;20050;-63
2022/06/01 03:19:33;;;;;;;23.88;21.30;;;;;;;15.16;55.38;101223.16;4996468;28;20065;-62
2022/06/01 03:22:01;;;;;;;23.10;20.65;;;;;;;15.17;55.43;101227.59;4996541;28;20057;-63
2022/06/01 03:24:28;;;;;;;23.00;20.60;;;;;;;15.17;55.46;101220.34;4996689;28;20129;-62
2022/06/01 03:26:55;;;;;;;23.17;20.75;;;;;;;15.14;55.38;101220.59;4996628;28;20042;-63
2022/06/01 03:29:23;;;;;;;23.30;20.75;;;;;;;15.10;55.13;101224.53;4996404;28;20085;-62
2022/06/01 03:31:50;;;;;;;22.70;20.30;;;;;;;15.02;55.24;101232.44;4996127;28;20085;-63
2022/06/01 03:34:18;;;;;;;25.02;19.98;;;;;;;14.99;55.22;101232.69;4996261;28;20053;-63
2022/06/01 03:36:46;;;;;;;23.75;20.70;;;;;;;14.94;55.11;101235.78;4996597;28;20432;-62
2022/06/01 03:39:12;;;;;;;23.92;21.17;;;;;;;14.92;55.14;101228.78;4996173;28;20126;-63
2022/06/01 03:41:39;;;;;;;23.55;21.02;;;;;;;14.89;55.27;101232.59;4996004;28;20047;-62
2022/06/01 03:46:52;;;;;;;23.10;20.08;;;;;;;14.86;55.19;101231.97;4982799;28;20039;-63
2022/06/01 03:49:19;;;;;;;27.13;21.10;;;;;;;14.84;55.06;101236.66;4996374;28;20050;-62
2022/06/01 03:51:46;;;;;;;23.08;20.65;;;;;;;14.79;55.09;101242.44;4996176;28;20388;-62
2022/06/01 03:54:12;;;;;;;24.05;21.35;;;;;;;14.76;55.40;101233.72;4978900;28;20042;-63
2022/06/01 03:56:39;;;;;;;24.05;21.45;;;;;;;14.74;55.29;101238.41;4978707;28;20531;-62
2022/06/01 03:59:06;;;;;;;29.15;21.83;;;;;;;14.72;55.14;101233.13;4995959;28;20038;-62
2022/06/01 04:01:32;;;;;;;24.50;21.45;;;;;;;14.71;55.24;101244.91;4996076;28;20050;-62
2022/06/01 04:03:59;;;;;;;25.35;21.15;;;;;;;14.69;55.47;101244.19;4996028;28;20042;-63
2022/06/01 04:06:25;;;;;;;25.92;22.88;;;;;;;14.68;55.16;101247.00;4995914;28;20046;-63
2022/06/01 04:08:53;;;;;;;25.13;22.00;;;;;;;14.66;55.28;101241.72;4995891;28;20056;-62
2022/06/01 04:11:19;;;;;;;24.75;22.10;;;;;;;14.65;55.33;101252.66;4996072;28;20042;-63
2022/06/01 04:13:46;;;;;;;25.15;22.35;;;;;;;14.65;55.60;101252.66;4995585;28;20065;-62
2022/06/01 04:16:12;;;;;;;26.13;21.75;;;;;;;14.63;55.55;101247.38;4982128;28;20044;-62
2022/06/01 04:18:48;;;;;;;27.48;22.98;;;;;;;14.63;55.77;101256.34;4995657;28;20496;-62
2022/06/01 04:21:21;;;;;;;27.13;22.67;;;;;;;14.61;55.80;101247.50;4995556;28;20038;-62
2022/06/01 04:23:50;;;;;;;25.90;22.33;;;;;;;14.65;55.61;101255.38;4995509;28;20046;-62
2022/06/01 04:26:16;;;;;;;29.33;23.20;;;;;;;14.64;55.98;101251.81;4995346;28;20488;-63
2022/06/01 04:28:44;;;;;;;29.85;22.63;;;;;;;14.67;56.08;101253.41;4995394;28;20419;-62
2022/06/01 04:31:11;;;;;;;29.42;24.35;;;;;;;14.71;55.97;101246.75;4995154;28;20054;-62
2022/06/01 04:33:41;;;;;;;27.95;23.38;;;;;;;14.76;56.36;101247.25;4996733;28;20038;-62
2022/06/01 04:36:08;;;;;;;28.90;23.63;;;;;;;14.80;56.23;101243.28;4995920;28;20060;-63
2022/06/01 04:38:35;;;;;;;31.35;25.50;;;;;;;14.85;56.46;101241.06;4978342;28;20043;-62
2022/06/01 04:41:01;;;;;;;30.52;26.25;;;;;;;14.89;56.63;101247.97;4995457;28;20057;-62
2022/06/01 04:43:28;;;;;;;26.13;23.25;;;;;;;14.93;56.64;101246.72;4994785;28;20045;-62
2022/06/01 04:45:56;;;;;;;29.55;23.83;;;;;;;14.94;56.66;101243.91;4995320;28;20113;-62
2022/06/01 04:48:23;;;;;;;26.55;23.15;;;;;;;14.96;56.72;101242.91;4994978;28;20046;-63
2022/06/01 04:50:52;;;;;;;27.70;23.05;;;;;;;14.96;56.80;101241.06;4995042;28;20042;-62
2022/06/01 04:53:19;;;;;;;28.50;22.75;;;;;;;14.98;56.82;101252.63;4994524;28;20057;-63
2022/06/01 04:55:47;;;;;;;24.80;21.95;;;;;;;15.01;56.97;101249.66;4994987;28;20046;-62
2022/06/01 04:58:14;;;;;;;29.60;21.90;;;;;;;15.03;56.70;101252.25;4994862;28;20488;-62
2022/06/01 05:00:42;;;;;;;27.48;21.02;;;;;;;15.04;56.66;101257.53;4994878;28;20050;-63
2022/06/01 05:03:10;;;;;;;25.75;21.20;;;;;;;15.03;56.75;101247.69;4994642;28;20046;-62
2022/06/01 05:05:39;;;;;;;26.60;21.70;;;;;;;15.05;56.99;101255.66;4994555;28;20736;-62
2022/06/01 05:08:13;;;;;;;27.10;21.45;;;;;;;15.06;56.99;101255.53;4977354;28;20396;-63
2022/06/01 05:10:41;;;;;;;28.77;23.05;;;;;;;15.07;57.10;101245.59;4994755;28;20604;-63
2022/06/01 05:13:08;;;;;;;25.65;21.70;;;;;;;15.08;57.11;101250.88;4994600;28;20112;-63
2022/06/01 05:15:45;;;;;;;28.83;21.30;;;;;;;15.09;57.24;101246.31;4977364;28;20038;-62
2022/06/01 05:18:12;;;;;;;24.38;20.17;;;;;;;15.11;57.08;101247.91;4994894;28;20043;-63
2022/06/01 05:20:39;;;;;;;30.52;22.95;;;;;;;15.11;57.08;101250.59;4993634;28;20162;-62
2022/06/01 05:23:05;;;;;;;28.45;20.98;;;;;;;15.14;57.40;101254.91;4991090;28;20451;-63
2022/06/01 05:25:38;;;;;;;27.25;20.98;;;;;;;15.14;57.24;101254.91;4989650;28;20121;-63
2022/06/01 05:28:06;;;;;;;25.73;20.25;;;;;;;15.15;57.34;101254.78;4991657;28;20050;-62
2022/06/01 05:30:32;;;;;;;26.58;21.65;;;;;;;15.15;57.46;101256.63;4993942;28;20052;-62
2022/06/01 05:32:59;;;;;;;26.45;20.63;;;;;;;15.14;57.22;101258.47;4993082;28;20038;-63
2022/06/01 05:35:26;;;;;;;30.27;20.98;;;;;;;15.16;57.42;101261.03;4994291;28;20061;-63
2022/06/01 05:37:52;;;;;;;25.80;20.77;;;;;;;15.15;57.76;101260.19;4992283;28;20054;-62
2022/06/01 05:40:21;;;;;;;24.35;20.80;;;;;;;15.20;57.57;101257.94;4994103;28;20053;-62
2022/06/01 05:42:47;;;;;;;26.75;21.73;;;;;;;15.24;57.46;101256.72;4993678;28;20046;-62
2022/06/01 05:45:14;;;;;;;28.17;22.08;;;;;;;15.28;57.89;101262.72;4994108;28;20041;-62
2022/06/01 05:47:41;;;;;;;28.27;21.13;;;;;;;15.33;58.14;101260.50;4976720;28;20035;-62
2022/06/01 05:50:08;;;;;;;32.35;21.02;;;;;;;15.41;58.16;101260.69;4994108;28;20045;-61
2022/06/01 05:52:38;;;;;;;25.50;20.45;;;;;;;15.49;58.23;101262.75;4993766;28;20045;-63
2022/06/01 05:55:11;;;;;;;28.92;20.33;;;;;;;15.59;58.05;101261.00;4975929;28;20048;-63
2022/06/01 05:57:38;;;;;;;23.02;18.73;;;;;;;15.70;58.06;101263.69;4994009;28;20046;-63
2022/06/01 06:00:08;;;;;;;23.17;19.02;;;;;;;15.81;58.08;101260.91;4993777;28;20499;-63
2022/06/01 06:02:40;;;;;;;22.33;19.13;;;;;;;15.95;58.21;101266.97;4993687;28;20484;-64
2022/06/01 06:06:11;;;;;;;24.00;20.35;;;;;;;16.07;58.32;101268.63;4994207;28;20085;-63
2022/06/01 06:07:56;;;;;;;23.40;19.52;;;;;;;16.17;58.32;101270.38;4991685;28;20132;-63
2022/06/01 06:10:23;;;;;;;22.75;18.00;;;;;;;16.27;58.26;101270.44;4993765;28;20065;-64
2022/06/01 06:12:50;;;;;;;23.15;16.63;;;;;;;16.33;58.12;101282.56;4980053;28;20038;-64
2022/06/01 06:15:17;;;;;;;22.80;16.40;;;;;;;16.38;58.03;101280.34;4993898;28;20497;-64
2022/06/01 06:17:48;;;;;;;20.88;17.23;;;;;;;16.43;57.65;101280.81;4993505;28;20042;-63
2022/06/01 06:20:15;;;;;;;20.23;17.42;;;;;;;16.47;57.58;101284.97;4993947;28;20050;-64
2022/06/01 06:22:42;;;;;;;22.58;17.52;;;;;;;16.51;57.68;101280.97;4981040;28;20408;-63
2022/06/01 06:25:08;;;;;;;22.20;17.20;;;;;;;16.59;57.67;101280.28;4993590;28;20054;-64
2022/06/01 06:27:35;;;;;;;21.35;16.83;;;;;;;16.67;58.09;101286.78;4993223;28;20042;-63
2022/06/01 06:30:02;;;;;;;21.88;17.25;;;;;;;16.77;57.96;101287.66;4993649;28;20042;-63
2022/06/01 06:32:29;;;;;;;17.95;15.55;;;;;;;16.89;58.05;101288.41;4993410;28;20038;-63
2022/06/01 06:34:55;;;;;;;19.45;15.05;;;;;;;16.99;57.60;101283.00;4980123;28;20053;-63
2022/06/01 06:37:22;;;;;;;23.08;15.25;;;;;;;17.12;57.49;101297.19;4993385;28;20042;-64
2022/06/01 06:39:48;;;;;;;20.40;14.88;;;;;;;17.28;57.71;101291.22;4993718;28;20401;-62
2022/06/01 06:42:15;;;;;;;18.30;13.20;;;;;;;17.46;57.62;101298.53;4993364;28;20048;-63
2022/06/01 06:44:42;;;;;;;18.73;13.35;;;;;;;17.64;57.71;101295.94;4993518;28;20121;-63
2022/06/01 06:47:09;;;;;;;15.23;12.05;;;;;;;17.81;57.09;101288.94;4993350;28;20481;-63
2022/06/01 06:49:36;;;;;;;16.08;12.80;;;;;;;17.93;57.08;101293.25;4993280;28;20038;-63
2022/06/01 06:52:03;;;;;;;18.35;12.73;;;;;;;18.03;56.62;101293.22;4993040;28;20061;-63
2022/06/01 06:54:30;;;;;;;14.82;11.88;;;;;;;18.15;56.69;101299.34;4992212;28;20129;-63
2022/06/01 06:56:56;;;;;;;15.57;11.32;;;;;;;18.29;56.67;101307.91;4992808;28;20054;-64
2022/06/01 06:59:23;;;;;;;17.08;11.93;;;;;;;18.42;56.33;101311.16;4992849;28;20488;-64
2022/06/01 07:01:49;;;;;;;13.60;11.13;;;;;;;18.57;56.26;101310.66;4992520;28;20064;-64
2022/06/01 07:04:16;;;;;;;15.30;11.30;;;;;;;18.68;56.28;101307.81;4993250;28;20034;-63
2022/06/01 07:06:43;;;;;;;12.68;10.25;;;;;;;18.83;55.82;101314.47;4996081;28;20441;-63
2022/06/01 07:09:10;;;;;;;14.85;10.70;;;;;;;19.01;55.95;101320.81;4996622;28;20030;-62
2022/06/01 07:11:38;;;;;;;12.15;8.95;;;;;;;19.14;55.48;101319.59;4979321;28;20042;-63
2022/06/01 07:14:04;;;;;;;12.05;10.38;;;;;;;19.27;55.22;101322.81;4994355;28;20046;-62
2022/06/01 07:16:33;;;;;;;13.80;9.80;;;;;;;19.44;55.34;101319.28;4985726;28;20117;-63
2022/06/01 07:19:04;;;;;;;12.60;8.10;;;;;;;19.57;54.96;101321.63;4995191;28;20385;-63
2022/06/01 07:21:32;;;;;;;10.00;8.07;;;;;;;19.69;54.67;101328.56;4996564;28;20472;-63
2022/06/01 07:23:59;;;;;;;10.20;8.30;;;;;;;19.79;54.36;101321.16;4996680;28;20042;-63
2022/06/01 07:26:33;;;;;;;9.23;7.60;;;;;;;19.88;54.57;101324.81;4983113;28;20046;-63
2022/06/01 07:29:00;;;;;;;9.68;7.50;;;;;;;20.00;53.94;101318.09;4996765;28;20396;-63
2022/06/01 07:31:27;;;;;;;12.82;7.68;;;;;;;20.06;53.50;101320.19;4996263;28;20050;-63
2022/06/01 07:33:55;;;;;;;9.85;7.65;;;;;;;20.12;53.56;101321.44;4996001;28;20073;-63
2022/06/01 07:36:25;;;;;;;11.35;7.15;;;;;;;20.14;53.15;101331.19;4995763;28;20108;-64
2022/06/01 07:44:40;;;;;;;7.93;5.57;;;;;;;20.06;52.45;101324.78;4996033;28;20053;-63
2022/06/01 07:47:08;;;;;;;12.25;5.93;;;;;;;20.06;52.15;101327.50;4996146;28;20404;-64
2022/06/01 07:49:56;;;;;;;5.57;5.05;;;;;;;20.06;52.29;101320.19;4995853;28;20038;-63
2022/06/01 07:52:42;;;;;;;8.23;6.13;;;;;;;20.05;51.89;101323.91;4995621;28;20055;-63
2022/06/01 07:55:10;;;;;;;8.43;5.88;;;;;;;20.03;52.01;101330.53;4996068;28;20034;-63
2022/06/01 07:57:36;;;;;;;8.35;5.93;;;;;;;20.03;51.68;101328.69;4995872;28;20034;-63
2022/06/01 08:00:03;;;;;;;7.80;5.93;;;;;;;20.08;51.89;101326.38;4995822;28;20061;-63
2022/06/01 08:02:38;;;;;;;7.15;6.18;;;;;;;20.11;51.52;101327.91;4995800;28;20109;-63
2022/06/01 08:05:06;;;;;;;9.35;6.22;;;;;;;20.13;51.56;101323.16;4996205;28;20042;-63
2022/06/01 08:07:35;;;;;;;8.73;5.72;;;;;;;20.19;51.57;101323.38;4995770;28;20408;-63
2022/06/01 08:10:03;;;;;;;7.88;5.85;;;;;;;20.26;51.65;101324.44;4995961;28;20401;-62
2022/06/01 08:15:16;;;;;;;6.30;4.78;;;;;;;20.37;50.83;101327.91;4995517;28;20038;-64
2022/06/01 08:17:51;;;;;;;6.30;4.70;;;;;;;20.37;50.64;101336.97;4994882;28;20038;-63
2022/06/01 08:20:18;;;;;;;6.32;4.93;;;;;;;20.34;50.21;101333.69;4995658;28;20061;-65
2022/06/01 08:22:44;;;;;;;7.57;5.32;;;;;;;20.34;50.40;101337.28;4995153;28;20518;-62
2022/06/01 08:25:16;;;;;;;8.23;5.80;;;;;;;20.37;50.34;101338.84;4995554;28;20491;-64
2022/06/01 08:27:44;;;;;;;6.07;5.47;;;;;;;20.44;50.16;101331.75;4978056;28;20078;-62
2022/06/01 08:30:12;;;;;;;6.85;6.15;;;;;;;20.57;50.47;101324.84;4995806;28;20046;-63
2022/06/01 08:32:38;;;;;;;6.88;6.18;;;;;;;20.73;50.49;101329.53;4995152;28;20046;-64
2022/06/01 08:35:07;;;;;;;7.68;6.78;;;;;;;20.94;50.61;101329.13;4995379;28;20044;-63
2022/06/01 08:37:33;;;;;;;9.50;6.30;;;;;;;21.12;49.94;101335.34;4995448;28;20042;-63
2022/06/01 08:40:00;;;;;;;6.85;6.10;;;;;;;21.30;49.83;101335.25;4995194;28;20034;-63
2022/06/01 08:42:27;;;;;;;6.63;5.40;;;;;;;21.49;49.91;101337.69;4994384;28;20042;-64
2022/06/01 08:45:06;;;;;;;6.40;5.72;;;;;;;21.64;49.49;101331.59;4995349;28;20046;-63
2022/06/01 08:47:39;;;;;;;6.88;6.00;;;;;;;21.70;48.52;101337.22;4995391;28;20061;-64
2022/06/01 08:50:13;;;;;;;8.68;6.15;;;;;;;21.74;48.54;101329.53;4994992;28;20503;-63
2022/06/01 08:52:40;;;;;;;6.18;5.25;;;;;;;21.84;48.53;101331.09;4995034;28;20061;-65
2022/06/01 08:55:07;;;;;;;5.85;5.05;;;;;;;21.94;48.12;101325.44;4994962;28;20515;-62
2022/06/01 08:57:57;;;;;;;7.25;4.85;;;;;;;21.95;47.18;101324.41;4994537;28;20551;-61
2022/06/01 09:00:27;;;;;;;5.80;5.20;;;;;;;21.98;47.48;101324.06;4977512;28;20491;-62
2022/06/01 09:03:09;;;;;;;6.20;5.60;;;;;;;22.08;47.30;101330.25;4994414;28;20038;-63
2022/06/01 09:06:00;;;;;;;7.60;5.50;;;;;;;22.24;47.52;101331.25;4994834;28;20034;-63
2022/06/01 09:08:59;;;;;;;7.80;5.30;;;;;;;22.38;47.13;101333.31;4994891;28;20045;-62
2022/06/01 09:11:37;;;;;;;7.65;5.20;;;;;;;22.43;47.17;101337.25;4987356;28;20042;-62
2022/06/01 09:14:31;;;;;;;6.32;5.22;;;;;;;22.44;46.61;101336.22;4994637;28;20046;-63
2022/06/01 09:16:59;;;;;;;8.95;5.97;;;;;;;22.44;46.27;101341.69;4990392;28;20061;-62
2022/06/01 09:19:30;;;;;;;5.35;4.85;;;;;;;22.39;46.28;101335.88;4994484;28;20034;-62
2022/06/01 09:24:57;;;;;;;6.00;5.35;;;;;;;22.18;45.42;101338.28;4982924;28;20042;-62
2022/06/01 09:27:47;;;;;;;7.25;5.93;;;;;;;22.14;45.70;101332.31;4994408;28;20042;-62
2022/06/01 09:30:35;;;;;;;6.55;5.47;;;;;;;22.20;45.28;101330.75;4976715;28;20480;-62
2022/06/01 09:33:04;;;;;;;5.07;3.83;;;;;;;22.21;45.41;101343.41;4992983;28;20038;-63
2022/06/01 09:35:36;;;;;;;5.38;4.03;;;;;;;22.21;45.02;101335.19;4994626;28;20057;-62
2022/06/01 09:38:17;;;;;;;5.68;5.05;;;;;;;22.21;45.08;101335.19;4995485;28;20217;-62
2022/06/01 09:40:43;;;;;;;6.65;5.63;;;;;;;22.25;45.13;101327.50;4993975;28;20058;-64
2022/06/01 09:43:23;;;;;;;5.50;4.90;;;;;;;22.27;45.33;101334.50;4993909;28;20403;-62
2022/06/01 09:45:53;;;;;;;9.35;5.20;;;;;;;22.25;45.05;101331.09;4994206;28;20125;-65
2022/06/01 09:48:28;;;;;;;12.70;6.00;;;;;;;22.19;44.62;101340.00;4976886;28;20038;-64
2022/06/01 09:51:03;;;;;;;5.87;4.60;;;;;;;22.07;44.52;101338.63;4994437;28;20039;-65
2022/06/01 09:53:39;;;;;;;6.38;5.65;;;;;;;21.98;44.71;101343.22;4993890;28;20046;-65
2022/06/01 09:56:05;;;;;;;7.95;5.60;;;;;;;21.89;44.81;101355.19;4994407;28;20069;-65
2022/06/01 10:06:54;;;;;;;6.75;4.20;;;;;;;21.09;45.02;101383.97;4993580;28;20035;-63
2022/06/01 10:09:32;;;;;;;6.32;5.10;;;;;;;20.70;44.89;101389.03;4993984;28;20396;-64
2022/06/01 10:12:37;;;;;;;10.35;5.38;;;;;;;20.31;45.20;101373.91;4993703;28;20077;-63
2022/06/01 10:15:17;;;;;;;6.00;4.80;;;;;;;20.05;45.95;101380.31;4976531;28;20411;-62
2022/06/01 10:17:50;;;;;;;8.55;4.88;;;;;;;19.83;46.01;101381.66;4992283;28;20488;-63
2022/06/01 10:20:24;;;;;;;6.05;4.80;;;;;;;19.70;46.96;101381.19;4993742;28;20050;-63
2022/06/01 10:23:20;;;;;;;5.35;4.68;;;;;;;19.58;47.30;101392.31;4993314;28;20049;-63
2022/06/01 10:25:52;;;;;;;7.55;5.30;;;;;;;19.58;47.61;101397.78;4958550;28;20058;-63
2022/06/01 10:28:25;;;;;;;5.35;4.88;;;;;;;19.60;47.99;101403.91;4993573;28;20042;-62
2022/06/01 10:31:29;;;;;;;5.43;4.93;;;;;;;19.64;48.18;101413.50;4993532;28;20046;-63
2022/06/01 10:34:04;;;;;;;5.10;4.60;;;;;;;19.69;48.48;101421.22;4975546;28;20550;-62
2022/06/01 10:36:46;;;;;;;6.07;5.57;;;;;;;19.72;48.19;101417.31;4993552;28;20046;-63
2022/06/01 10:39:45;;;;;;;6.25;5.20;;;;;;;19.74;48.51;101426.19;4993327;28;20809;-62
2022/06/01 10:42:19;;;;;;;7.63;5.13;;;;;;;19.75;48.46;101434.22;4994945;28;20435;-62
2022/06/01 10:44:45;;;;;;;5.82;5.22;;;;;;;19.73;48.39;101436.25;4997463;28;20053;-62
2022/06/01 10:47:29;;;;;;;7.13;6.10;;;;;;;19.67;48.72;101437.72;4997409;28;20046;-63
2022/06/01 10:50:13;;;;;;;6.68;5.95;;;;;;;19.63;48.89;101441.75;4995286;28;20042;-63
2022/06/01 10:52:56;;;;;;;6.28;5.68;;;;;;;19.55;49.16;101444.41;4997030;28;20415;-63
2022/06/01 10:55:28;;;;;;;9.40;6.68;;;;;;;19.45;49.28;101435.41;4987087;28;20102;-64
2022/06/01 10:57:58;;;;;;;5.95;4.88;;;;;;;19.28;49.28;101428.84;4997425;28;20048;-63
2022/06/01 11:00:44;;;;;;;7.28;5.05;;;;;;;19.12;49.54;101425.94;4997234;28;20105;-63
2022/06/01 11:03:52;;;;;;;6.03;5.13;;;;;;;18.96;49.89;101412.97;5005440;28;20053;-63
2022/06/01 11:06:19;;;;;;;5.60;5.10;;;;;;;18.94;49.83;101422.28;4968976;28;20053;-64
2022/06/01 11:08:54;;;;;;;8.55;5.97;;;;;;;18.91;50.45;101417.13;4996980;28;20042;-64
2022/06/01 11:11:30;;;;;;;6.50;5.50;;;;;;;18.92;50.38;101407.97;4997272;28;20129;-63
2022/06/01 11:14:12;;;;;;;6.40;5.45;;;;;;;18.93;50.26;101420.56;4979500;28;20053;-64
2022/06/01 11:16:44;;;;;;;7.70;6.65;;;;;;;18.96;50.86;101403.94;4996521;28;20373;-64
2022/06/01 11:19:17;;;;;;;7.90;6.72;;;;;;;18.97;50.89;101405.66;4993530;28;20408;-63
2022/06/01 11:21:56;;;;;;;7.22;6.53;;;;;;;18.97;50.78;101406.50;4996786;28;20078;-64
2022/06/01 11:24:46;;;;;;;7.13;6.38;;;;;;;18.97;51.20;101398.34;4996807;28;20054;-64
2022/06/01 11:27:31;;;;;;;7.18;6.47;;;;;;;19.05;51.10;101406.63;4981981;28;20054;-63
2022/06/01 11:30:11;;;;;;;8.73;7.75;;;;;;;19.15;51.36;101403.00;4984319;28;20515;-63
2022/06/01 11:32:59;;;;;;;5.43;4.93;;;;;;;19.24;50.77;101402.09;4996664;28;20054;-63
2022/06/01 11:36:17;;;;;;;5.15;4.68;;;;;;;19.29;50.99;101410.66;4996629;28;20040;-63
2022/06/01 11:38:50;;;;;;;6.45;5.53;;;;;;;19.39;51.18;101410.63;4946710;28;20070;-63
2022/06/01 11:41:26;;;;;;;6.88;6.18;;;;;;;19.45;51.16;101413.59;4996348;28;20061;-64
2022/06/01 11:44:02;;;;;;;6.82;6.20;;;;;;;19.58;50.98;101408.66;4996365;28;20047;-63
2022/06/01 11:46:37;;;;;;;6.80;5.75;;;;;;;19.73;51.02;101409.00;4996496;28;20050;-64
2022/06/01 11:49:14;;;;;;;5.10;4.55;;;;;;;19.86;51.22;101401.28;4996317;28;20042;-63
2022/06/01 11:51:47;;;;;;;5.22;4.78;;;;;;;19.97;50.85;101405.66;4995504;28;20046;-63
2022/06/01 11:54:33;;;;;;;6.05;5.28;;;;;;;20.10;51.17;101405.28;4995930;28;20563;-63
2022/06/01 11:57:15;;;;;;;6.63;5.85;;;;;;;20.21;50.91;101408.63;4978532;28;20089;-63
2022/06/01 12:00:04;;;;;;;6.63;5.57;;;;;;;20.36;50.48;101405.31;4996313;28;20046;-64
2022/06/01 12:02:40;;;;;;;6.40;5.80;;;;;;;20.50;50.63;101404.78;4995800;28;20061;-64
2022/06/01 12:05:27;;;;;;;7.05;6.10;;;;;;;20.63;50.13;101403.31;4996196;28;20053;-63